[CLOSED] ATC @ EDDL (PG server)

Hi pilots,
I’m doing some training for my next test for adv server, feel free to join. Patterns wecome.

Runway 23L departure
Runway 23R landing

METAR: EDDL 211550Z 14005KT 100V170 9999 SCT024 BKN040 22/17 Q1019 NOSIG

Come to fly!

EDDL is amsterdam or london?

Amsterdam :)

1 Like

This topic was automatically closed 90 days after the last reply. New replies are no longer allowed.